Notice: Undefined index: language in D:\xampp\htdocs\vam\index.php on line 25
Open Air Virtual

 METAR AND TAF INFORMATION
METAR FOR EIWF
ADDS - METARS form results

(1248 UTC 20 August 2019)
Data provider http://aviationweather.gov/metar/data/
 
METAR text: EIWF 201230Z 25008KT 220V310 8000 -RA SCT008 SCT012 15/14 Q1022 R21/1/////
Conditions at: EIWF (WATERFORD ARPT , IE) observed 1230 UTC 20 August 2019
Temperature: 15.0°C (59°F)
Dewpoint: 14.0°C (57°F) [RH = 94%]
Pressure (altimeter): 30.18 inches Hg (1022.0 mb)
Winds: from the WSW (250 degrees) at 9 MPH (8 knots; 4.1 m/s)
Visibility: 5 miles ( 8 km)
Ceiling: at least 12,000 feet AGL
Clouds: scattered clouds at 800 feet AGL
scattered clouds at 1200 feet AGL
Weather: -RA  (light rain)

METAR text: EIWF 201200Z 25008KT 210V310 9999 -RA SCT008 BKN060 15/14 Q1022 R21/1/////
Conditions at: EIWF (WATERFORD ARPT , IE) observed 1200 UTC 20 August 2019
Temperature: 15.0°C (59°F)
Dewpoint: 14.0°C (57°F) [RH = 94%]
Pressure (altimeter): 30.18 inches Hg (1022.0 mb)
Winds: from the WSW (250 degrees) at 9 MPH (8 knots; 4.1 m/s)
Visibility: 6 or more miles (10+ km)
Ceiling: 6000 feet AGL
Clouds: scattered clouds at 800 feet AGL
broken clouds at 6000 feet AGL
Weather: -RA  (light rain)

Forecast for: EIWF (WATERFORD ARPT , IE)
Text: TAF EIWF 201100Z 2012/2021 23013KT 9999 SCT012
Forecast period: 1200 to 2100 UTC 20 August 2019
Forecast type: FROM: standard forecast or significant change
Winds: from the SW (230 degrees) at 15 MPH (13 knots; 6.7 m/s)
Visibility: 6 or more miles 10+ km)
Ceiling: at least 12,000 feet AGL
Clouds: scattered clouds at 1200 feet AGL
Weather: no significant weather forecast for this period
Text: TEMPO 2012/2018 23015G25KT -SHRA FEW018CB
Forecast period: 1200 to 1800 UTC 20 August 2019
Forecast type: TEMPORARY: The following changes expected for less than half the time period
Winds: from the SW (230 degrees) at 17 MPH (15 knots; 7.7 m/s)
gusting to 29 MPH (25 knots; 12.9 m/s)
Visibility: missing
Ceiling: at least 12,000 feet AGL
Clouds: few clouds at 1800 feet AGL
Weather: -SHRA  (light rain showers)
Text: PROB30
Forecast period: 1200 to 1800 UTC 20 August 2019
Forecast type: TEMPORARY: The following changes expected for less than half the time period
Visibility: 2.49 miles (4.01 km)
Ceiling: 1200 feet AGL
Clouds: broken clouds at 1200 feet AGL
Weather: SHRA  (rain showers)

 AIRPORT MAP

 RUNWAY INFORMATION
Runway 03 Runway length 4701 ft Runway width 98 ft
Runway elevation 86 ft Runway displaced threshold 295 ft Runway heading 21
Runway 21 Runway length 4701 ft Runway width 98 ft
Runway elevation 113 ft Runway displaced threshold 470 ft Runway heading 201

 AIRPORT FREQUENCIES
Type ATIS Name ATIS Frequency 121.15 MHZ
Type GND Name GND Frequency 121.6 MHZ
Type INFO Name INFO Frequency 129.85 MHZ
Type TWR Name TWR Frequency 129.85 MHZ

 AIRPORT NEAR NAVIGATION AIDS
Type NDB Name Waterford Frequency 368 KHZ



Powered by Virtual Airlines Manager [v2.6.2]